createdAt,value
2023-03-15T00:10:05.494Z,17.23
2023-03-15T00:20:12.859Z,17.25
2023-03-15T00:30:19.813Z,17.26
2023-03-15T00:40:26.780Z,17.23
2023-03-15T00:50:34.115Z,17.23
2023-03-15T01:00:40.603Z,17.23
2023-03-15T01:10:46.812Z,17.20
2023-03-15T01:20:54.248Z,17.20
2023-03-15T01:31:01.280Z,17.20
2023-03-15T01:41:08.806Z,17.20
2023-03-15T01:51:16.180Z,17.19
2023-03-15T02:01:23.162Z,17.19
2023-03-15T02:11:30.754Z,17.20
2023-03-15T02:21:38.138Z,17.20
2023-03-15T02:31:45.228Z,17.18
2023-03-15T02:41:52.369Z,17.14
2023-03-15T02:51:59.318Z,17.14
2023-03-15T03:02:06.831Z,17.16
2023-03-15T03:12:14.508Z,17.16
2023-03-15T03:22:21.577Z,17.16
2023-03-15T03:32:28.925Z,17.11
2023-03-15T03:42:36.423Z,17.14
2023-03-15T03:52:42.397Z,17.09
2023-03-15T04:02:49.748Z,17.09
2023-03-15T04:12:57.028Z,17.09
2023-03-15T04:23:03.884Z,17.09
2023-03-15T04:33:10.670Z,17.09
2023-03-15T04:43:17.941Z,17.07
2023-03-15T04:53:25.097Z,17.09
2023-03-15T05:03:31.760Z,17.09
2023-03-15T05:13:38.989Z,17.09
2023-03-15T05:23:46.068Z,17.06
2023-03-15T05:33:53.079Z,17.06
2023-03-15T05:44:00.187Z,17.09
2023-03-15T05:54:07.533Z,17.12
2023-03-15T06:04:15.240Z,17.12
2023-03-15T06:14:22.166Z,17.09
2023-03-15T06:24:29.227Z,17.11
2023-03-15T06:34:36.454Z,17.09
2023-03-15T06:44:43.470Z,17.09
2023-03-15T06:54:50.620Z,17.06
2023-03-15T07:04:57.297Z,17.06
2023-03-15T07:15:04.535Z,17.09
2023-03-15T07:25:11.474Z,17.09
2023-03-15T07:35:19.028Z,17.13
2023-03-15T07:45:25.314Z,17.13
2023-03-15T07:55:32.635Z,17.16
2023-03-15T08:05:39.846Z,17.16
2023-03-15T08:15:46.651Z,17.20
2023-03-15T08:25:53.980Z,17.23
2023-03-15T08:36:00.817Z,17.23
2023-03-15T08:46:08.101Z,17.28
2023-03-15T08:56:15.068Z,17.35
2023-03-15T09:06:21.931Z,17.38
2023-03-15T09:16:29.288Z,17.36
2023-03-15T09:26:36.406Z,17.36
2023-03-15T09:36:43.332Z,17.33
2023-03-15T09:46:50.184Z,17.31
2023-03-15T09:56:57.761Z,17.36
2023-03-15T10:07:04.819Z,17.36
2023-03-15T10:17:12.438Z,17.35
2023-03-15T10:27:19.525Z,17.38
2023-03-15T10:37:26.729Z,17.52
2023-03-15T10:47:33.267Z,17.52
2023-03-15T10:57:39.598Z,17.61
2023-03-15T11:07:46.582Z,17.61
2023-03-15T11:17:53.758Z,17.59
2023-03-15T11:28:00.626Z,17.63
2023-03-15T11:38:15.385Z,17.64
2023-03-15T11:48:19.992Z,17.64
2023-03-15T11:58:26.728Z,17.66
2023-03-15T12:08:33.816Z,17.69
2023-03-15T12:18:41.117Z,17.64
2023-03-15T12:28:47.907Z,17.68
2023-03-15T12:38:54.777Z,17.66
2023-03-15T12:49:02.288Z,17.68
2023-03-15T12:59:10.437Z,17.69
2023-03-15T13:09:17.258Z,17.70
2023-03-15T13:19:24.135Z,17.70
2023-03-15T13:29:31.226Z,17.70
2023-03-15T13:39:38.048Z,17.70
2023-03-15T13:49:45.207Z,17.70
2023-03-15T13:59:52.046Z,17.71
2023-03-15T14:09:59.239Z,17.73
2023-03-15T14:20:06.636Z,17.77
2023-03-15T14:30:13.533Z,17.77
2023-03-15T14:40:20.390Z,17.71
2023-03-15T14:50:27.584Z,17.68
2023-03-15T15:00:34.794Z,17.62
2023-03-15T15:10:41.811Z,17.62
2023-03-15T15:20:48.679Z,17.45
2023-03-15T15:30:56.031Z,17.38
2023-03-15T15:41:02.755Z,17.40
2023-03-15T15:51:09.899Z,17.40
2023-03-15T16:01:16.736Z,17.38
2023-03-15T16:11:23.949Z,17.38
2023-03-15T16:21:30.977Z,17.40
2023-03-15T16:31:38.062Z,17.40
2023-03-15T16:41:44.952Z,17.45
2023-03-15T16:51:52.065Z,17.45
2023-03-15T17:01:59.218Z,17.45
2023-03-15T17:12:05.863Z,17.45
2023-03-15T17:22:13.417Z,17.43
2023-03-15T17:32:20.613Z,17.42
2023-03-15T17:42:27.575Z,17.42
2023-03-15T17:52:34.194Z,17.41
2023-03-15T18:02:49.682Z,17.34
2023-03-15T18:12:53.651Z,17.33
2023-03-15T18:23:00.230Z,17.33
2023-03-15T18:33:07.597Z,17.20
2023-03-15T18:43:14.721Z,17.16
2023-03-15T18:53:21.490Z,17.16
2023-03-15T19:03:28.347Z,17.13
2023-03-15T19:13:35.686Z,17.12
2023-03-15T19:23:42.845Z,17.07
2023-03-15T19:33:49.818Z,17.07
2023-03-15T19:43:56.513Z,17.06
2023-03-15T19:54:03.845Z,17.04
2023-03-15T20:04:11.326Z,17.04
2023-03-15T20:14:18.840Z,17.04
2023-03-15T20:24:25.973Z,17.02
2023-03-15T20:34:33.120Z,17.02
2023-03-15T20:44:40.447Z,16.99
2023-03-15T20:54:46.949Z,16.99
2023-03-15T21:04:54.012Z,16.98
2023-03-15T21:15:01.368Z,17.00
2023-03-15T21:25:08.197Z,16.98
2023-03-15T21:35:15.182Z,16.98
2023-03-15T21:45:22.474Z,16.99
2023-03-15T21:55:29.352Z,17.00
2023-03-15T22:05:36.410Z,16.98
2023-03-15T22:15:43.323Z,17.00
2023-03-15T22:25:50.259Z,16.98
2023-03-15T22:35:57.625Z,16.97
2023-03-15T22:46:04.832Z,16.95
2023-03-15T22:56:11.927Z,16.95
2023-03-15T23:06:19.449Z,16.95
2023-03-15T23:16:26.788Z,16.95
2023-03-15T23:26:33.685Z,16.95
2023-03-15T23:36:42.494Z,16.99
2023-03-15T23:46:50.770Z,16.99
2023-03-15T23:56:58.104Z,16.95
